Time;durP1;ratioP1;P1;durP2;ratioP2;P2;SDS_P1;SDS_P2;PMS_P1;PMS_P2;Temp;Humidity;BMP_temperature;BMP_pressure;BME280_temperature;BME280_humidity;BME280_pressure;Samples;Min_cycle;Max_cycle;Signal;HPM_P1;HPM_P2
2023/06/13 00:00:05;;;;;;;315.07;152.77;;;;;;;19.59;100.00;99057.13;310612;31;1320;-77
2023/06/13 00:00:15;;;;;;;315.65;153.65;;;;;;;19.61;100.00;99052.53;304259;32;1382;-77
2023/06/13 00:00:26;;;;;;;309.70;149.70;;;;;;;19.63;100.00;99060.34;309092;31;2700;-77
2023/06/13 00:00:37;;;;;;;310.58;151.35;;;;;;;19.62;100.00;99056.88;308773;31;3222;-77
2023/06/13 00:00:48;;;;;;;312.98;152.18;;;;;;;19.64;100.00;99056.72;305191;32;1319;-77
2023/06/13 00:00:59;;;;;;;314.67;152.37;;;;;;;19.66;100.00;99057.44;305877;32;2765;-76
2023/06/13 00:01:10;;;;;;;313.30;150.98;;;;;;;19.66;100.00;99057.44;303634;32;2018;-76
2023/06/13 00:01:22;;;;;;;314.80;151.20;;;;;;;19.60;100.00;99053.50;302983;31;2646;-77
2023/06/13 00:01:35;;;;;;;315.98;151.57;;;;;;;19.58;100.00;99053.63;303252;32;860;-77
2023/06/13 00:01:49;;;;;;;317.00;152.05;;;;;;;19.59;100.00;99057.97;301105;32;861;-78
2023/06/13 00:02:00;;;;;;;316.73;152.73;;;;;;;19.56;100.00;99058.22;296865;33;1460;-77
2023/06/13 00:02:12;;;;;;;317.77;152.55;;;;;;;19.54;100.00;99056.69;294906;32;5351;-77
2023/06/13 00:02:22;;;;;;;318.10;152.07;;;;;;;19.53;100.00;99055.84;289740;33;5334;-75
2023/06/13 00:02:33;;;;;;;320.63;154.45;;;;;;;19.52;100.00;99053.31;289041;34;1308;-76
2023/06/13 00:02:44;;;;;;;316.13;152.63;;;;;;;19.53;100.00;99061.16;285857;34;3731;-76
2023/06/13 00:02:55;;;;;;;316.10;151.15;;;;;;;19.53;100.00;99057.66;283507;34;3980;-76
2023/06/13 00:03:09;;;;;;;313.90;150.30;;;;;;;19.52;100.00;99059.47;282999;34;5650;-75
2023/06/13 00:03:19;;;;;;;317.35;151.93;;;;;;;19.51;100.00;99059.59;284282;34;3335;-76
2023/06/13 00:03:30;;;;;;;319.98;153.77;;;;;;;19.48;100.00;99060.69;282334;34;3667;-76
2023/06/13 00:03:41;;;;;;;320.30;153.27;;;;;;;19.48;100.00;99060.69;278208;35;4641;-76
2023/06/13 00:03:53;;;;;;;317.53;151.37;;;;;;;19.49;100.00;99059.72;278381;34;5519;-76
2023/06/13 00:04:03;;;;;;;315.70;151.05;;;;;;;19.50;100.00;99056.06;280939;35;877;-76
2023/06/13 00:04:21;;;;;;;313.42;150.65;;;;;;;19.52;100.00;99064.78;281569;34;6260;-76
2023/06/13 00:04:31;;;;;;;311.75;149.55;;;;;;;19.54;100.00;99057.53;279500;35;1893;-75
2023/06/13 00:04:43;;;;;;;311.10;147.85;;;;;;;19.54;100.00;99060.19;278919;35;8557;-76
2023/06/13 00:04:55;;;;;;;313.38;146.95;;;;;;;19.54;100.00;99054.88;277786;35;6312;-76
2023/06/13 00:05:10;;;;;;;315.85;150.45;;;;;;;19.55;100.00;99056.56;276640;35;5702;-76
2023/06/13 00:05:21;;;;;;;313.75;152.15;;;;;;;19.56;100.00;99058.22;271811;36;5124;-79
2023/06/13 00:05:31;;;;;;;311.30;153.85;;;;;;;19.58;100.00;99053.63;273884;36;898;-76
2023/06/13 00:05:45;;;;;;;314.30;154.82;;;;;;;19.59;100.00;99062.44;269801;36;5244;-77
2023/06/13 00:07:38;;;;;;;299.27;135.62;;;;;;;19.66;100.00;99058.28;2500369;27;20762;-76
2023/06/13 00:07:49;;;;;;;309.03;145.93;;;;;;;19.63;100.00;99057.69;351507;28;1389;-77
2023/06/13 00:07:59;;;;;;;310.02;149.05;;;;;;;19.60;100.00;99057.00;350118;28;1327;-77
2023/06/13 00:08:17;;;;;;;306.87;149.17;;;;;;;19.58;100.00;99053.63;347718;28;1413;-76
2023/06/13 00:08:31;;;;;;;306.08;146.23;;;;;;;19.57;100.00;99051.94;349308;28;954;-77
2023/06/13 00:08:42;;;;;;;305.77;145.73;;;;;;;19.57;100.00;99062.56;345966;28;1514;-77
2023/06/13 00:08:52;;;;;;;305.77;145.15;;;;;;;19.52;100.00;99050.66;347464;28;1283;-76
2023/06/13 00:09:03;;;;;;;307.33;145.50;;;;;;;19.52;100.00;99062.13;347987;28;1376;-76
2023/06/13 00:09:15;;;;;;;308.48;145.82;;;;;;;19.51;100.00;99055.13;349121;28;1242;-77
2023/06/13 00:09:25;;;;;;;308.48;147.20;;;;;;;19.51;100.00;99055.13;348867;28;1449;-77
2023/06/13 00:09:36;;;;;;;310.55;146.57;;;;;;;19.51;100.00;99057.78;350071;28;1502;-77
2023/06/13 00:09:47;;;;;;;309.23;145.83;;;;;;;19.51;100.00;99052.47;350186;28;807;-76
2023/06/13 00:09:58;;;;;;;309.95;147.70;;;;;;;19.55;100.00;99051.25;348705;28;1536;-77
2023/06/13 00:10:09;;;;;;;311.02;149.20;;;;;;;19.56;100.00;99052.91;347842;28;1399;-77
2023/06/13 00:10:19;;;;;;;310.67;147.88;;;;;;;19.58;100.00;99058.94;347547;28;899;-77
2023/06/13 00:10:30;;;;;;;309.57;146.80;;;;;;;19.59;100.00;99057.97;347516;28;860;-77
2023/06/13 00:10:40;;;;;;;308.55;147.05;;;;;;;19.62;100.00;99058.69;347432;28;1222;-76
2023/06/13 00:10:51;;;;;;;307.40;148.70;;;;;;;19.62;100.00;99056.88;346001;28;1228;-77
2023/06/13 00:11:01;;;;;;;304.45;148.05;;;;;;;19.62;100.00;99056.03;347653;28;1233;-77
2023/06/13 00:11:12;;;;;;;301.50;146.77;;;;;;;19.63;100.00;99058.53;347412;28;1236;-77
2023/06/13 00:11:22;;;;;;;302.15;144.95;;;;;;;19.63;100.00;99055.88;348736;28;1261;-77
2023/06/13 00:11:33;;;;;;;303.40;144.70;;;;;;;19.63;100.00;99057.69;348087;28;1344;-77
2023/06/13 00:11:49;;;;;;;306.17;145.77;;;;;;;19.62;100.00;99058.69;348877;28;1671;-78
2023/06/13 00:11:59;;;;;;;306.70;146.98;;;;;;;19.55;100.00;99056.56;347321;28;1547;-78
2023/06/13 00:12:10;;;;;;;308.77;148.53;;;;;;;19.51;100.00;99054.28;346134;28;1235;-78
2023/06/13 00:12:20;;;;;;;309.95;147.75;;;;;;;19.49;100.00;99054.41;345955;28;956;-78
2023/06/13 00:12:32;;;;;;;312.80;147.57;;;;;;;19.48;100.00;99055.41;348837;28;1207;-77
2023/06/13 00:12:44;;;;;;;313.20;145.80;;;;;;;19.44;100.00;99056.63;346024;28;1473;-77
2023/06/13 00:12:54;;;;;;;316.67;150.35;;;;;;;19.38;100.00;99053.66;346806;28;1628;-77
2023/06/13 00:13:06;;;;;;;316.07;151.90;;;;;;;19.36;100.00;99059.09;345766;28;1500;-77
2023/06/13 00:13:17;;;;;;;314.27;151.43;;;;;;;19.35;100.00;99056.59;349395;28;1196;-77
2023/06/13 00:13:27;;;;;;;312.35;149.18;;;;;;;19.33;100.00;99051.41;345978;28;1396;-77
2023/06/13 00:13:39;;;;;;;312.17;149.47;;;;;;;19.32;100.00;99049.72;343436;28;1196;-77
2023/06/13 00:13:49;;;;;;;308.92;145.80;;;;;;;19.31;100.00;99053.34;344650;28;1679;-79
2023/06/13 00:14:00;;;;;;;306.48;145.48;;;;;;;19.26;100.00;99051.09;344861;28;1374;-76
2023/06/13 00:14:11;;;;;;;309.30;146.80;;;;;;;19.28;100.00;99048.31;338833;29;1321;-77
2023/06/13 00:14:23;;;;;;;314.02;148.15;;;;;;;19.28;100.00;99057.09;348372;28;1207;-76
2023/06/13 00:14:33;;;;;;;312.88;144.90;;;;;;;19.27;100.00;99058.06;343911;28;1476;-76
2023/06/13 00:14:44;;;;;;;309.57;143.47;;;;;;;19.27;100.00;99057.22;340682;29;1205;-76
2023/06/13 00:14:55;;;;;;;311.58;145.35;;;;;;;19.30;100.00;99056.13;344616;28;1319;-76
2023/06/13 00:15:05;;;;;;;313.27;146.43;;;;;;;19.32;100.00;99059.50;343280;28;1258;-76
2023/06/13 00:15:16;;;;;;;313.58;147.23;;;;;;;19.32;100.00;99052.38;345044;28;1275;-76
2023/06/13 00:15:26;;;;;;;312.37;147.30;;;;;;;19.33;100.00;99053.22;347452;28;749;-76
2023/06/13 00:15:38;;;;;;;310.25;145.48;;;;;;;19.32;100.00;99049.72;339467;29;798;-76
2023/06/13 00:15:58;;;;;;;311.83;145.32;;;;;;;19.36;100.00;99059.09;336727;28;1776;-76
2023/06/13 00:16:09;;;;;;;312.67;145.88;;;;;;;19.37;100.00;99058.13;335359;29;1605;-76
2023/06/13 00:16:25;;;;;;;309.70;143.98;;;;;;;19.37;100.00;99047.50;336403;29;1599;-77
2023/06/13 00:16:36;;;;;;;307.42;144.88;;;;;;;19.32;100.00;99060.34;337630;29;1974;-76
2023/06/13 00:16:47;;;;;;;309.50;145.95;;;;;;;19.27;100.00;99057.22;336090;29;1206;-76
2023/06/13 00:16:58;;;;;;;308.80;147.47;;;;;;;19.24;100.00;99049.53;336740;29;1203;-77
2023/06/13 00:17:08;;;;;;;308.38;145.73;;;;;;;19.26;100.00;99048.44;338076;29;1349;-77
2023/06/13 00:17:22;;;;;;;308.55;144.55;;;;;;;19.28;100.00;99054.44;338919;29;1114;-78
2023/06/13 00:17:33;;;;;;;314.92;146.20;;;;;;;19.34;100.00;99057.56;334290;29;1961;-78
2023/06/13 00:17:45;;;;;;;316.73;149.37;;;;;;;19.36;100.00;99050.31;327183;29;5255;-77
2023/06/13 00:17:55;;;;;;;315.85;152.77;;;;;;;19.40;100.00;99054.38;330757;29;3131;-77
2023/06/13 00:18:06;;;;;;;319.23;152.65;;;;;;;19.42;100.00;99049.78;331208;29;1805;-78
2023/06/13 00:18:17;;;;;;;317.73;148.20;;;;;;;19.42;100.00;99050.63;330631;29;3465;-77
2023/06/13 00:18:30;;;;;;;314.38;146.20;;;;;;;19.44;100.00;99053.97;330519;29;2303;-77
2023/06/13 00:18:43;;;;;;;306.75;143.88;;;;;;;19.46;100.00;99052.03;334259;29;918;-77
2023/06/13 00:18:53;;;;;;;306.75;143.18;;;;;;;19.44;100.00;99046.00;333045;29;1280;-77
2023/06/13 00:19:05;;;;;;;303.88;142.23;;;;;;;19.46;100.00;99048.53;333315;29;1273;-77
2023/06/13 00:19:17;;;;;;;307.13;144.32;;;;;;;19.46;100.00;99052.03;333465;29;1912;-76
2023/06/13 00:19:28;;;;;;;305.98;144.95;;;;;;;19.49;100.00;99045.63;333413;29;1511;-76
2023/06/13 00:19:39;;;;;;;305.25;142.77;;;;;;;19.49;100.00;99051.78;330340;29;772;-76
2023/06/13 00:19:49;;;;;;;307.07;147.50;;;;;;;19.51;100.00;99054.28;332303;29;1846;-76
2023/06/13 00:19:59;;;;;;;308.92;149.80;;;;;;;19.52;100.00;99051.50;326112;30;1964;-76
2023/06/13 00:20:10;;;;;;;310.63;150.73;;;;;;;19.53;100.00;99050.53;324419;30;916;-76
2023/06/13 00:20:21;;;;;;;311.25;149.45;;;;;;;19.55;100.00;99051.25;322585;30;2391;-77
2023/06/13 00:20:33;;;;;;;312.98;152.02;;;;;;;19.56;100.00;99050.25;323870;30;2355;-77
2023/06/13 00:20:44;;;;;;;313.10;153.07;;;;;;;19.58;100.00;99050.97;322939;30;2466;-77
2023/06/13 00:20:54;;;;;;;313.02;151.93;;;;;;;19.56;100.00;99052.91;324068;30;1315;-77
2023/06/13 00:21:06;;;;;;;312.67;149.43;;;;;;;19.54;100.00;99049.56;318452;30;1727;-77
2023/06/13 00:21:17;;;;;;;311.65;148.43;;;;;;;19.50;100.00;99047.28;319453;30;1408;-77
2023/06/13 00:21:27;;;;;;;311.55;148.15;;;;;;;19.47;100.00;99050.22;317899;30;1627;-77
2023/06/13 00:21:41;;;;;;;310.70;147.83;;;;;;;19.45;100.00;99050.34;317643;31;849;-76
2023/06/13 00:21:51;;;;;;;313.77;149.25;;;;;;;19.44;100.00;99043.34;316559;30;2534;-78
2023/06/13 00:22:03;;;;;;;315.40;151.37;;;;;;;19.44;100.00;99043.34;314055;31;2577;-78
2023/06/13 00:22:14;;;;;;;314.10;151.98;;;;;;;19.47;100.00;99045.75;313205;30;2320;-77
2023/06/13 00:22:24;;;;;;;314.20;152.05;;;;;;;19.49;100.00;99045.63;312788;31;1256;-77
2023/06/13 00:22:35;;;;;;;316.83;154.20;;;;;;;19.48;100.00;99047.44;311344;31;3483;-77
2023/06/13 00:22:45;;;;;;;316.48;152.80;;;;;;;19.45;100.00;99045.03;310863;31;2879;-77
2023/06/13 00:22:56;;;;;;;313.27;151.33;;;;;;;19.45;100.00;99050.34;311516;31;1570;-77
2023/06/13 00:23:08;;;;;;;309.50;148.50;;;;;;;19.46;100.00;99046.72;305278;32;1479;-77
2023/06/13 00:23:19;;;;;;;309.46;147.22;;;;;;;19.46;100.00;99040.56;306708;32;2339;-78
2023/06/13 00:23:29;;;;;;;308.87;146.57;;;;;;;19.44;100.00;99042.53;304557;32;2230;-77
2023/06/13 00:23:40;;;;;;;307.83;146.90;;;;;;;19.44;100.00;99048.66;303118;32;1204;-77
2023/06/13 00:23:50;;;;;;;310.25;149.18;;;;;;;19.44;100.00;99043.34;302983;32;3721;-77
2023/06/13 00:24:00;;;;;;;311.57;148.73;;;;;;;19.43;100.00;99041.69;298396;32;3798;-77
2023/06/13 00:24:11;;;;;;;313.00;148.65;;;;;;;19.44;100.00;99043.34;297095;33;1224;-77
2023/06/13 00:24:22;;;;;;;313.13;148.50;;;;;;;19.43;100.00;99044.34;298883;32;3833;-77
2023/06/13 00:24:32;;;;;;;314.77;151.73;;;;;;;19.43;100.00;99047.00;295937;33;4070;-77
2023/06/13 00:24:43;;;;;;;313.92;152.30;;;;;;;19.41;100.00;99048.94;291874;33;4806;-77
2023/06/13 00:24:54;;;;;;;312.73;152.00;;;;;;;19.40;100.00;99041.94;291107;34;883;-77
2023/06/13 00:25:05;;;;;;;310.37;151.57;;;;;;;19.41;100.00;99043.63;288862;33;4584;-77
2023/06/13 00:25:15;;;;;;;312.27;152.45;;;;;;;19.42;100.00;99044.47;289132;33;4091;-77
2023/06/13 00:25:25;;;;;;;314.88;152.38;;;;;;;19.41;100.00;99042.78;290122;34;1159;-77
2023/06/13 00:25:36;;;;;;;318.50;151.27;;;;;;;19.39;100.00;99045.56;289942;33;3324;-76
2023/06/13 00:25:46;;;;;;;317.70;151.13;;;;;;;19.39;100.00;99040.25;290514;33;4166;-77
2023/06/13 00:25:57;;;;;;;317.00;151.48;;;;;;;19.41;100.00;99045.44;287446;34;4489;-77
2023/06/13 00:26:07;;;;;;;315.90;152.37;;;;;;;19.42;100.00;99036.50;283392;34;1612;-77
2023/06/13 00:26:18;;;;;;;314.92;153.30;;;;;;;19.43;100.00;99035.53;282811;34;5893;-78
2023/06/13 00:26:28;;;;;;;313.93;152.37;;;;;;;19.44;100.00;99040.72;281011;34;6293;-75
2023/06/13 00:26:38;;;;;;;310.13;150.25;;;;;;;19.46;100.00;99041.41;283670;34;817;-75
2023/06/13 00:26:49;;;;;;;308.67;148.90;;;;;;;19.46;100.00;99041.41;282114;34;5825;-75
2023/06/13 00:26:59;;;;;;;309.20;152.60;;;;;;;19.48;100.00;99044.78;277623;34;7027;-75
2023/06/13 00:27:10;;;;;;;310.98;155.23;;;;;;;19.50;100.00;99045.47;278900;35;3440;-75
2023/06/13 00:27:20;;;;;;;314.45;158.23;;;;;;;19.51;100.00;99047.16;283281;34;6935;-76
2023/06/13 00:27:32;;;;;;;318.73;157.40;;;;;;;19.52;100.00;99040.88;281868;34;6002;-76
2023/06/13 00:27:42;;;;;;;317.27;154.88;;;;;;;19.54;100.00;99044.25;280663;34;5602;-77
2023/06/13 00:27:52;;;;;;;314.25;152.20;;;;;;;19.55;100.00;99040.63;282712;35;929;-77
2023/06/13 00:28:03;;;;;;;313.37;152.03;;;;;;;19.57;100.00;99038.69;277328;35;5433;-78
2023/06/13 00:29:58;;;;;;;304.90;139.05;;;;;;;19.65;100.00;99039.81;2485028;27;20574;-79
2023/06/13 00:30:09;;;;;;;307.48;145.50;;;;;;;19.66;100.00;99038.84;351647;28;887;-78
2023/06/13 00:30:20;;;;;;;311.80;149.37;;;;;;;19.68;100.00;99039.56;348750;28;1204;-78
2023/06/13 00:30:30;;;;;;;313.13;151.27;;;;;;;19.69;100.00;99035.94;348799;28;1577;-78
2023/06/13 00:30:41;;;;;;;313.53;151.30;;;;;;;19.68;100.00;99044.88;347424;28;1288;-78
2023/06/13 00:30:51;;;;;;;310.73;148.57;;;;;;;19.70;100.00;99037.63;347507;28;855;-78
2023/06/13 00:31:02;;;;;;;307.83;147.98;;;;;;;19.70;100.00;99045.56;347447;28;1913;-77
2023/06/13 00:31:12;;;;;;;310.27;150.77;;;;;;;19.70;100.00;99040.25;347519;28;894;-77
2023/06/13 00:31:28;;;;;;;311.80;151.23;;;;;;;19.70;100.00;99037.63;346003;28;1286;-77
2023/06/13 00:31:39;;;;;;;311.02;148.80;;;;;;;19.71;100.00;99033.97;345495;28;1306;-77
2023/06/13 00:31:49;;;;;;;309.90;149.60;;;;;;;19.71;100.00;99039.28;348705;28;1321;-77
2023/06/13 00:32:00;;;;;;;310.25;150.73;;;;;;;19.72;100.00;99040.97;347404;28;1743;-77
2023/06/13 00:32:10;;;;;;;309.70;150.70;;;;;;;19.71;100.00;99040.13;347520;28;824;-77
2023/06/13 00:32:21;;;;;;;312.27;152.43;;;;;;;19.72;100.00;99038.31;347352;28;1354;-77
2023/06/13 00:32:31;;;;;;;313.30;154.25;;;;;;;19.71;100.00;99039.28;344766;28;996;-77
2023/06/13 00:32:42;;;;;;;314.85;155.93;;;;;;;19.71;100.00;99044.59;346614;28;1738;-77
2023/06/13 00:32:54;;;;;;;314.88;155.02;;;;;;;19.72;100.00;99043.63;346059;28;860;-77
2023/06/13 00:33:05;;;;;;;313.63;152.48;;;;;;;19.71;100.00;99040.13;344668;28;1468;-77
2023/06/13 00:33:17;;;;;;;315.95;153.43;;;;;;;19.70;100.00;99043.75;344730;28;1426;-77
2023/06/13 00:33:31;;;;;;;315.17;153.23;;;;;;;19.72;100.00;99040.97;345971;28;1401;-77
2023/06/13 00:33:43;;;;;;;315.80;153.10;;;;;;;19.73;100.00;99035.53;344676;28;1462;-78
2023/06/13 00:33:54;;;;;;;315.63;150.68;;;;;;;19.73;100.00;99042.66;344502;28;1331;-77
2023/06/13 00:34:04;;;;;;;311.75;148.38;;;;;;;19.72;100.00;99041.81;346461;28;964;-77
2023/06/13 00:34:15;;;;;;;310.77;149.63;;;;;;;19.71;100.00;99040.13;346122;28;1309;-77
2023/06/13 00:34:26;;;;;;;308.65;151.07;;;;;;;19.72;100.00;99040.97;344729;28;949;-77
2023/06/13 00:34:38;;;;;;;310.70;153.07;;;;;;;19.70;100.00;99037.63;346668;28;999;-77
2023/06/13 00:34:48;;;;;;;307.30;151.30;;;;;;;19.71;100.00;99036.63;344395;28;1728;-77
2023/06/13 00:34:59;;;;;;;307.57;152.10;;;;;;;19.71;100.00;99040.13;342007;28;1242;-77
2023/06/13 00:35:09;;;;;;;305.77;150.70;;;;;;;19.72;100.00;99036.50;344691;28;955;-77
2023/06/13 00:35:20;;;;;;;309.27;151.20;;;;;;;19.72;100.00;99038.31;344196;28;1224;-78
2023/06/13 00:35:31;;;;;;;310.27;149.75;;;;;;;19.72;100.00;99038.31;344840;28;924;-78
2023/06/13 00:35:44;;;;;;;311.80;149.95;;;;;;;19.72;100.00;99038.31;343328;28;966;-77
2023/06/13 00:35:55;;;;;;;311.23;150.35;;;;;;;19.73;100.00;99037.34;343113;28;1125;-77
2023/06/13 00:36:05;;;;;;;314.35;152.85;;;;;;;19.73;100.00;99045.31;344188;28;2991;-77
2023/06/13 00:36:19;;;;;;;316.87;158.00;;;;;;;19.74;100.00;99044.34;344453;28;5410;-77
2023/06/13 00:36:33;;;;;;;314.02;156.35;;;;;;;19.74;100.00;99047.84;347538;28;5575;-77
2023/06/13 00:36:44;;;;;;;315.92;152.50;;;;;;;19.75;100.00;99043.34;347224;28;3460;-77
2023/06/13 00:36:55;;;;;;;312.65;151.05;;;;;;;19.74;100.00;99036.38;343794;28;1806;-78
2023/06/13 00:37:09;;;;;;;306.83;149.77;;;;;;;19.75;100.00;99046.00;341239;28;911;-78
2023/06/13 00:37:20;;;;;;;304.88;148.32;;;;;;;19.74;100.00;99036.38;343574;28;1519;-78
2023/06/13 00:37:34;;;;;;;308.45;148.60;;;;;;;19.76;100.00;99037.06;344741;28;1352;-78
2023/06/13 00:37:45;;;;;;;310.85;150.40;;;;;;;19.74;100.00;99034.56;344614;28;1386;-77
2023/06/13 00:37:56;;;;;;;311.55;150.35;;;;;;;19.76;100.00;99039.72;340562;29;1433;-77
2023/06/13 00:38:07;;;;;;;309.67;148.93;;;;;;;19.75;100.00;99035.41;340687;28;1594;-76
2023/06/13 00:38:21;;;;;;;307.87;149.23;;;;;;;19.76;100.00;99037.06;340443;28;1316;-76
2023/06/13 00:38:32;;;;;;;308.48;152.48;;;;;;;19.75;100.00;99036.25;340617;29;1359;-76
2023/06/13 00:38:42;;;;;;;310.70;155.38;;;;;;;19.76;100.00;99037.06;339457;29;1112;-77
2023/06/13 00:38:56;;;;;;;310.77;154.33;;;;;;;19.76;100.00;99037.91;342583;28;1531;-77
2023/06/13 00:39:06;;;;;;;309.13;152.20;;;;;;;19.77;100.00;99042.25;344260;28;1420;-76
2023/06/13 00:39:17;;;;;;;307.37;147.00;;;;;;;19.77;100.00;99038.75;340673;28;1351;-76
2023/06/13 00:39:27;;;;;;;309.70;149.35;;;;;;;19.77;100.00;99041.41;339376;29;877;-76
2023/06/13 00:39:37;;;;;;;311.10;149.60;;;;;;;19.75;100.00;99043.34;341150;28;1425;-76
2023/06/13 00:39:48;;;;;;;314.20;152.93;;;;;;;19.72;100.00;99040.97;339332;29;1476;-78
2023/06/13 00:39:58;;;;;;;313.50;152.33;;;;;;;19.69;100.00;99041.25;339628;29;1213;-77
2023/06/13 00:40:10;;;;;;;314.88;152.38;;;;;;;19.70;100.00;99043.75;339425;29;2080;-77
2023/06/13 00:40:20;;;;;;;312.77;151.05;;;;;;;19.69;100.00;99042.09;339978;28;1675;-77
2023/06/13 00:40:32;;;;;;;314.00;152.17;;;;;;;19.69;100.00;99047.38;336640;29;1321;-78
2023/06/13 00:40:42;;;;;;;313.60;152.07;;;;;;;19.69;100.00;99046.56;332074;29;2279;-77
2023/06/13 00:40:54;;;;;;;313.57;154.67;;;;;;;19.70;100.00;99042.91;334485;29;1729;-79
2023/06/13 00:41:04;;;;;;;310.92;154.30;;;;;;;19.70;100.00;99042.91;331049;29;1841;-77
2023/06/13 00:41:15;;;;;;;308.97;152.90;;;;;;;19.71;100.00;99047.25;330576;29;818;-77
2023/06/13 00:41:25;;;;;;;309.98;154.07;;;;;;;19.72;100.00;99043.63;330527;29;1641;-77
2023/06/13 00:41:35;;;;;;;310.80;153.47;;;;;;;19.73;100.00;99043.50;329094;29;1321;-77
2023/06/13 00:41:46;;;;;;;312.42;154.07;;;;;;;19.73;100.00;99040.84;331586;29;1592;-78
2023/06/13 00:41:56;;;;;;;314.43;153.63;;;;;;;19.73;100.00;99038.19;329041;29;1210;-77
2023/06/13 00:42:07;;;;;;;312.88;152.60;;;;;;;19.75;100.00;99036.25;328990;29;2144;-77
2023/06/13 00:42:18;;;;;;;312.40;153.32;;;;;;;19.77;100.00;99038.75;327693;30;2322;-77
2023/06/13 00:42:28;;;;;;;311.90;152.57;;;;;;;19.75;100.00;99041.53;325034;30;1417;-78
2023/06/13 00:42:38;;;;;;;314.33;154.20;;;;;;;19.74;100.00;99039.88;325373;30;2169;-77
2023/06/13 00:42:58;;;;;;;314.53;154.80;;;;;;;19.72;100.00;99041.81;326700;29;1972;-77
2023/06/13 00:43:08;;;;;;;311.45;153.23;;;;;;;19.70;100.00;99042.91;328419;29;2553;-77
2023/06/13 00:43:19;;;;;;;307.35;150.63;;;;;;;19.71;100.00;99044.59;325005;30;2579;-76
2023/06/13 00:43:29;;;;;;;308.48;150.90;;;;;;;19.68;100.00;99042.22;324355;30;1399;-77
2023/06/13 00:43:40;;;;;;;307.77;153.17;;;;;;;19.66;100.00;99044.16;326742;30;1618;-77
2023/06/13 00:43:50;;;;;;;311.10;155.18;;;;;;;19.65;100.00;99042.47;326889;30;1145;-77
2023/06/13 00:44:01;;;;;;;311.57;155.00;;;;;;;19.66;100.00;99041.50;329240;30;1458;-77
2023/06/13 00:44:11;;;;;;;310.27;151.68;;;;;;;19.66;100.00;99041.50;325200;30;2004;-77
2023/06/13 00:44:22;;;;;;;313.63;152.93;;;;;;;19.66;100.00;99041.50;327553;29;2578;-77
2023/06/13 00:44:33;;;;;;;314.25;154.27;;;;;;;19.66;100.00;99041.50;328782;29;2860;-77
2023/06/13 00:44:43;;;;;;;313.73;156.07;;;;;;;19.67;100.00;99037.88;327240;30;1408;-77
2023/06/13 00:44:54;;;;;;;312.20;156.00;;;;;;;19.68;100.00;99039.56;327616;30;2839;-77
2023/06/13 00:45:33;;;;;;;311.37;154.63;;;;;;;19.71;100.00;99041.94;327676;29;2588;-77
2023/06/13 00:45:43;;;;;;;311.40;153.35;;;;;;;19.69;100.00;99036.78;315013;31;3168;-77
2023/06/13 00:45:54;;;;;;;318.17;155.53;;;;;;;19.72;100.00;99033.00;317146;31;2437;-77
2023/06/13 00:46:05;;;;;;;321.27;157.23;;;;;;;19.73;100.00;99040.00;315475;31;5825;-76
2023/06/13 00:46:17;;;;;;;319.38;156.23;;;;;;;19.73;100.00;99038.19;314027;31;1242;-76
2023/06/13 00:46:29;;;;;;;313.70;154.95;;;;;;;19.74;100.00;99036.38;311887;31;832;-77
2023/06/13 00:46:41;;;;;;;309.60;151.10;;;;;;;19.76;100.00;99045.03;312395;31;3386;-77
2023/06/13 00:46:52;;;;;;;308.77;149.38;;;;;;;19.77;100.00;99038.75;311021;31;3687;-77
2023/06/13 00:47:03;;;;;;;305.00;148.30;;;;;;;19.77;100.00;99039.59;307495;32;3978;-77
2023/06/13 00:47:15;;;;;;;308.10;151.73;;;;;;;19.79;100.00;99031.50;306173;32;1523;-76
2023/06/13 00:47:26;;;;;;;311.08;154.00;;;;;;;19.82;100.00;99036.53;308940;31;4263;-76
2023/06/13 00:47:36;;;;;;;312.15;154.32;;;;;;;19.81;100.00;99034.84;310887;31;3824;-75
2023/06/13 00:47:54;;;;;;;310.70;152.60;;;;;;;19.82;100.00;99041.84;310816;31;894;-75
2023/06/13 00:48:05;;;;;;;312.13;153.02;;;;;;;19.83;100.00;99035.56;305633;32;3114;-75
2023/06/13 00:48:16;;;;;;;313.20;153.18;;;;;;;19.85;100.00;99044.25;301831;32;1569;-75
2023/06/13 00:48:26;;;;;;;313.80;153.93;;;;;;;19.85;100.00;99046.91;301502;32;3368;-76
2023/06/13 00:48:37;;;;;;;315.97;157.73;;;;;;;19.85;100.00;99034.44;302462;32;3908;-76
2023/06/13 00:48:48;;;;;;;316.85;160.43;;;;;;;19.87;100.00;99039.63;299131;32;4577;-76
2023/06/13 00:48:59;;;;;;;316.92;162.73;;;;;;;19.88;100.00;99042.16;296048;33;1358;-76
2023/06/13 00:49:09;;;;;;;314.38;159.35;;;;;;;19.89;100.00;99043.00;296168;33;5315;-76
2023/06/13 00:49:20;;;;;;;314.93;157.23;;;;;;;19.87;100.00;99040.47;295942;33;6808;-77
2023/06/13 00:49:31;;;;;;;313.95;156.32;;;;;;;19.87;100.00;99039.63;291970;33;1480;-78
2023/06/13 00:49:41;;;;;;;312.67;157.90;;;;;;;19.88;100.00;99041.31;293021;33;5890;-77
2023/06/13 00:49:53;;;;;;;312.75;160.65;;;;;;;19.86;100.00;99038.78;293124;33;5339;-78
2023/06/13 00:50:04;;;;;;;309.36;158.02;;;;;;;19.86;100.00;99043.25;293336;33;5753;-77
2023/06/13 00:50:15;;;;;;;309.80;156.87;;;;;;;19.86;100.00;99040.59;292920;33;1283;-75
2023/06/13 00:50:26;;;;;;;310.63;153.18;;;;;;;19.84;100.00;99034.59;291725;33;4443;-77
2023/06/13 00:50:40;;;;;;;311.85;153.88;;;;;;;19.84;100.00;99042.56;292153;33;4566;-76
2023/06/13 00:50:52;;;;;;;310.08;153.45;;;;;;;19.82;100.00;99044.50;287881;34;5377;-77
2023/06/13 00:51:02;;;;;;;311.35;154.68;;;;;;;19.80;100.00;99035.84;286489;33;7306;-77
2023/06/13 00:51:14;;;;;;;314.80;157.00;;;;;;;19.82;100.00;99044.50;286974;34;1363;-77
2023/06/13 00:51:27;;;;;;;315.45;156.90;;;;;;;19.81;100.00;99050.78;284963;34;7986;-77
2023/06/13 00:51:40;;;;;;;312.75;154.27;;;;;;;19.83;100.00;99038.22;281532;34;9220;-77
2023/06/13 00:51:51;;;;;;;310.98;156.30;;;;;;;19.83;100.00;99040.88;278465;35;7754;-77
2023/06/13 00:52:05;;;;;;;308.92;157.05;;;;;;;19.78;100.00;99043.94;280008;35;922;-76
2023/06/13 00:52:16;;;;;;;306.05;155.18;;;;;;;19.75;100.00;99043.34;281827;35;1169;-78
2023/06/13 00:52:27;;;;;;;307.63;153.20;;;;;;;19.74;100.00;99041.69;281182;34;8096;-77
2023/06/13 00:52:39;;;;;;;313.10;155.77;;;;;;;19.73;100.00;99034.69;277679;35;5945;-77
2023/06/13 00:52:49;;;;;;;318.25;156.73;;;;;;;19.73;100.00;99042.66;273345;35;6771;-77
2023/06/13 00:54:40;;;;;;;298.35;137.90;;;;;;;19.76;100.00;99034.41;2492836;27;20497;-76
2023/06/13 00:54:50;;;;;;;311.20;150.43;;;;;;;19.76;100.00;99037.06;351556;28;872;-77
2023/06/13 00:55:01;;;;;;;310.98;151.45;;;;;;;19.77;100.00;99033.44;350329;28;749;-77
2023/06/13 00:55:11;;;;;;;309.87;150.23;;;;;;;19.79;100.00;99031.50;350172;28;1326;-76
2023/06/13 00:55:23;;;;;;;309.75;148.95;;;;;;;19.80;100.00;99038.50;350875;28;1148;-77
2023/06/13 00:55:33;;;;;;;308.63;148.10;;;;;;;19.81;100.00;99035.69;348879;28;851;-78
2023/06/13 00:55:44;;;;;;;309.45;149.00;;;;;;;19.82;100.00;99033.88;349250;28;1200;-77
2023/06/13 00:55:55;;;;;;;307.48;148.55;;;;;;;19.83;100.00;99041.72;349186;28;1029;-78
2023/06/13 00:56:07;;;;;;;308.23;147.63;;;;;;;19.85;100.00;99041.59;351025;28;1176;-78
2023/06/13 00:56:17;;;;;;;306.65;147.43;;;;;;;19.85;100.00;99038.94;351646;28;872;-78
2023/06/13 00:56:28;;;;;;;307.58;147.35;;;;;;;19.84;100.00;99034.59;350078;28;1597;-77
2023/06/13 00:56:40;;;;;;;309.52;147.70;;;;;;;19.85;100.00;99041.59;350128;28;1450;-78